createdAt,value
2017-05-06T00:00:17.657Z,0
2017-05-06T00:01:17.685Z,0
2017-05-06T00:02:17.715Z,0
2017-05-06T00:03:18.000Z,0
2017-05-06T00:04:18.094Z,0
2017-05-06T00:05:17.789Z,0
2017-05-06T00:06:18.147Z,0
2017-05-06T00:07:17.226Z,0
2017-05-06T00:08:18.450Z,0
2017-05-06T00:09:18.228Z,0
2017-05-06T00:10:17.616Z,0
2017-05-06T00:11:17.645Z,0
2017-05-06T00:12:18.310Z,0
2017-05-06T00:13:18.271Z,0
2017-05-06T00:14:17.730Z,0
2017-05-06T00:15:18.073Z,0
2017-05-06T00:16:18.412Z,0
2017-05-06T00:17:18.447Z,0
2017-05-06T00:18:18.726Z,0
2017-05-06T00:19:18.192Z,0
2017-05-06T00:20:18.205Z,0
2017-05-06T00:21:18.222Z,0
2017-05-06T00:22:18.260Z,0
2017-05-06T00:23:18.233Z,0
2017-05-06T00:24:18.306Z,0
2017-05-06T00:25:18.348Z,0
2017-05-06T00:26:18.688Z,0
2017-05-06T00:27:18.727Z,0
2017-05-06T00:28:18.395Z,0
2017-05-06T00:29:18.462Z,0
2017-05-06T00:30:18.800Z,0
2017-05-06T00:31:18.537Z,0
2017-05-06T00:32:18.857Z,0
2017-05-06T00:33:18.815Z,0
2017-05-06T00:34:18.910Z,0
2017-05-06T00:35:18.299Z,0
2017-05-06T00:36:18.633Z,0
2017-05-06T00:37:19.009Z,0
2017-05-06T00:38:18.413Z,0
2017-05-06T00:39:19.313Z,0
2017-05-06T00:40:18.447Z,0
2017-05-06T00:41:18.464Z,0
2017-05-06T00:42:18.805Z,0
2017-05-06T00:43:19.171Z,0
2017-05-06T00:44:19.431Z,0
2017-05-06T00:45:18.587Z,0
2017-05-06T00:46:18.596Z,0
2017-05-06T00:47:18.995Z,0
2017-05-06T00:48:18.986Z,0
2017-05-06T00:49:19.575Z,0
2017-05-06T00:50:19.344Z,0
2017-05-06T00:51:19.052Z,0
2017-05-06T00:52:19.405Z,0
2017-05-06T00:53:19.118Z,0
2017-05-06T00:54:19.708Z,0
2017-05-06T00:55:19.168Z,0
2017-05-06T00:56:19.510Z,0
2017-05-06T00:57:19.557Z,0
2017-05-06T00:58:19.565Z,0
2017-05-06T00:59:19.531Z,0
2017-05-06T01:00:19.307Z,0
2017-05-06T01:01:19.328Z,0
2017-05-06T01:02:19.369Z,0
2017-05-06T01:03:19.385Z,0
2017-05-06T01:04:19.364Z,0
2017-05-06T01:05:19.442Z,0
2017-05-06T01:06:19.156Z,0
2017-05-06T01:07:19.816Z,0
2017-05-06T01:08:19.529Z,0
2017-05-06T01:09:19.789Z,0
2017-05-06T01:10:19.571Z,0
2017-05-06T01:11:19.615Z,0
2017-05-06T01:12:19.972Z,0
2017-05-06T01:13:19.984Z,0
2017-05-06T01:14:20.251Z,0
2017-05-06T01:15:20.030Z,0
2017-05-06T01:16:19.432Z,0
2017-05-06T01:17:20.092Z,0
2017-05-06T01:18:20.121Z,0
2017-05-06T01:19:20.410Z,0
2017-05-06T01:20:19.849Z,0
2017-05-06T01:21:20.183Z,0
2017-05-06T01:22:19.274Z,0
2017-05-06T01:23:19.926Z,0
2017-05-06T01:24:20.248Z,0
2017-05-06T01:25:19.984Z,0
2017-05-06T01:26:19.382Z,0
2017-05-06T01:27:20.047Z,0
2017-05-06T01:28:20.387Z,0
2017-05-06T01:29:20.361Z,0
2017-05-06T01:30:20.430Z,0
2017-05-06T01:31:20.465Z,0
2017-05-06T01:32:19.859Z,0
2017-05-06T01:33:20.523Z,0
2017-05-06T01:34:20.169Z,0
2017-05-06T01:35:20.574Z,0
2017-05-06T01:36:20.614Z,0
2017-05-06T01:37:20.311Z,0
2017-05-06T01:38:20.688Z,0
2017-05-06T01:39:20.637Z,0
2017-05-06T01:40:20.718Z,0
2017-05-06T01:41:20.109Z,0
2017-05-06T01:42:20.769Z,0
2017-05-06T01:43:20.802Z,0
2017-05-06T01:44:20.763Z,0
2017-05-06T01:45:20.844Z,0
2017-05-06T01:46:20.558Z,0
2017-05-06T01:47:20.578Z,0
2017-05-06T01:48:20.616Z,0
2017-05-06T01:49:21.207Z,0
2017-05-06T01:50:20.665Z,0
2017-05-06T01:51:20.689Z,0
2017-05-06T01:52:20.407Z,0
2017-05-06T01:53:20.747Z,0
2017-05-06T01:54:21.388Z,0
2017-05-06T01:55:20.499Z,0
2017-05-06T01:56:20.835Z,0
2017-05-06T01:57:21.179Z,0
2017-05-06T01:58:20.572Z,0
2017-05-06T01:59:20.532Z,0
2017-05-06T02:00:20.937Z,0
2017-05-06T02:01:20.655Z,0
2017-05-06T02:02:20.994Z,0
2017-05-06T02:03:21.341Z,0
2017-05-06T02:04:21.007Z,0
2017-05-06T02:05:21.081Z,0
2017-05-06T02:06:20.784Z,0
2017-05-06T02:07:21.135Z,0
2017-05-06T02:08:21.158Z,0
2017-05-06T02:09:21.756Z,0
2017-05-06T02:10:21.520Z,0
2017-05-06T02:11:21.236Z,0
2017-05-06T02:12:21.574Z,0
2017-05-06T02:13:21.290Z,0
2017-05-06T02:14:21.256Z,0
2017-05-06T02:15:20.708Z,0
2017-05-06T02:16:21.369Z,0
2017-05-06T02:17:21.717Z,0
2017-05-06T02:18:21.426Z,0
2017-05-06T02:19:22.054Z,0
2017-05-06T02:20:20.856Z,0
2017-05-06T02:21:21.512Z,0
2017-05-06T02:22:21.849Z,0
2017-05-06T02:23:21.893Z,0
2017-05-06T02:24:22.162Z,0
2017-05-06T02:25:21.620Z,0
2017-05-06T02:26:21.992Z,0
2017-05-06T02:27:21.677Z,0
2017-05-06T02:28:22.025Z,0
2017-05-06T02:29:22.295Z,0
2017-05-06T02:30:21.764Z,0
2017-05-06T02:31:21.780Z,0
2017-05-06T02:32:21.494Z,0
2017-05-06T02:33:22.149Z,0
2017-05-06T02:34:22.114Z,0
2017-05-06T02:35:22.214Z,0
2017-05-06T02:36:21.604Z,0
2017-05-06T02:37:21.967Z,0
2017-05-06T02:38:22.284Z,0
2017-05-06T02:39:22.576Z,0
2017-05-06T02:40:22.344Z,0
2017-05-06T02:41:22.366Z,0
2017-05-06T02:42:22.392Z,0
2017-05-06T02:43:22.100Z,0
2017-05-06T02:44:21.814Z,0
2017-05-06T02:45:22.417Z,0
2017-05-06T02:46:22.191Z,0
2017-05-06T02:47:22.228Z,0
2017-05-06T02:48:21.609Z,0
2017-05-06T02:49:22.266Z,0
2017-05-06T02:50:22.223Z,0
2017-05-06T02:51:22.315Z,0
2017-05-06T02:52:22.337Z,0
2017-05-06T02:53:22.683Z,0
2017-05-06T02:54:22.082Z,0
2017-05-06T02:55:23.010Z,0
2017-05-06T02:56:22.143Z,0
2017-05-06T02:57:22.495Z,0
2017-05-06T02:58:22.513Z,0
2017-05-06T02:59:22.530Z,0
2017-05-06T03:00:22.502Z,0
2017-05-06T03:01:22.279Z,0
2017-05-06T03:02:22.943Z,0
2017-05-06T03:03:22.984Z,0
2017-05-06T03:04:22.661Z,0
2017-05-06T03:05:23.273Z,0
2017-05-06T03:06:23.052Z,0
2017-05-06T03:07:22.752Z,0
2017-05-06T03:08:23.101Z,0
2017-05-06T03:09:22.806Z,0
2017-05-06T03:10:23.405Z,0
2017-05-06T03:11:23.186Z,0
2017-05-06T03:12:22.899Z,0
2017-05-06T03:13:23.220Z,0
2017-05-06T03:14:22.957Z,0
2017-05-06T03:15:22.899Z,0
2017-05-06T03:16:22.678Z,0
2017-05-06T03:17:23.031Z,0
2017-05-06T03:18:23.363Z,0
2017-05-06T03:19:23.078Z,0
2017-05-06T03:20:23.345Z,0
2017-05-06T03:21:23.133Z,0
2017-05-06T03:22:23.163Z,0
2017-05-06T03:23:23.500Z,0
2017-05-06T03:24:23.213Z,0
2017-05-06T03:25:23.174Z,0
2017-05-06T03:26:23.270Z,0
2017-05-06T03:27:23.283Z,0
2017-05-06T03:28:23.329Z,0
2017-05-06T03:29:22.709Z,0
2017-05-06T03:30:23.625Z,0
2017-05-06T03:31:23.410Z,0
2017-05-06T03:32:23.123Z,0
2017-05-06T03:33:23.458Z,0
2017-05-06T03:34:23.181Z,0
2017-05-06T03:35:23.754Z,0
2017-05-06T03:36:22.907Z,0
2017-05-06T03:37:23.879Z,0
2017-05-06T03:38:23.918Z,0
2017-05-06T03:39:23.601Z,0
2017-05-06T03:40:23.898Z,0
2017-05-06T03:41:23.372Z,0
2017-05-06T03:42:24.013Z,0
2017-05-06T03:43:23.727Z,0
2017-05-06T03:44:23.762Z,0
2017-05-06T03:45:24.345Z,0
2017-05-06T03:46:23.789Z,0
2017-05-06T03:47:23.522Z,0
2017-05-06T03:48:24.186Z,0
2017-05-06T03:49:23.571Z,0
2017-05-06T03:50:24.474Z,0
2017-05-06T03:51:23.937Z,0
2017-05-06T03:52:23.658Z,0
2017-05-06T03:53:24.319Z,0
2017-05-06T03:54:24.348Z,0
2017-05-06T03:55:24.295Z,0
2017-05-06T03:56:24.080Z,0
2017-05-06T03:57:24.106Z,0
2017-05-06T03:58:24.127Z,0
2017-05-06T03:59:24.483Z,0
2017-05-06T04:00:24.431Z,0
2017-05-06T04:01:24.529Z,0
2017-05-06T04:02:24.242Z,0
2017-05-06T04:03:23.646Z,0
2017-05-06T04:04:24.291Z,0
2017-05-06T04:05:24.571Z,0
2017-05-06T04:06:24.664Z,0
2017-05-06T04:07:23.733Z,0
2017-05-06T04:08:24.077Z,0
2017-05-06T04:09:23.483Z,0
2017-05-06T04:10:24.411Z,0
2017-05-06T04:11:24.755Z,0
2017-05-06T04:12:24.462Z,0
2017-05-06T04:13:24.490Z,0
2017-05-06T04:14:24.843Z,0
2017-05-06T04:15:24.478Z,0
2017-05-06T04:16:24.255Z,0
2017-05-06T04:17:24.589Z,0
2017-05-06T04:18:24.305Z,0
2017-05-06T04:19:24.342Z,0
2017-05-06T04:20:24.926Z,0
2017-05-06T04:21:25.008Z,0
2017-05-06T04:22:25.057Z,0
2017-05-06T04:23:24.756Z,0
2017-05-06T04:24:24.475Z,0
2017-05-06T04:25:24.495Z,0
2017-05-06T04:26:25.399Z,0
2017-05-06T04:27:25.176Z,0
2017-05-06T04:28:25.203Z,0
2017-05-06T04:29:25.234Z,0
2017-05-06T04:30:24.938Z,0
2017-05-06T04:31:25.548Z,0
2017-05-06T04:32:25.312Z,0
2017-05-06T04:33:25.336Z,0
2017-05-06T04:34:25.048Z,0
2017-05-06T04:35:25.079Z,0
2017-05-06T04:36:25.358Z,0
2017-05-06T04:37:24.811Z,0
2017-05-06T04:38:25.154Z,0
2017-05-06T04:39:25.501Z,0
2017-05-06T04:40:25.525Z,0
2017-05-06T04:41:25.495Z,0
2017-05-06T04:42:25.577Z,0
2017-05-06T04:43:25.288Z,0
2017-05-06T04:44:24.697Z,0
2017-05-06T04:45:25.662Z,0
2017-05-06T04:46:25.311Z,0
2017-05-06T04:47:25.705Z,0
2017-05-06T04:48:25.416Z,0
2017-05-06T04:49:25.456Z,0
2017-05-06T04:50:24.542Z,0
2017-05-06T04:51:25.750Z,0
2017-05-06T04:52:25.853Z,5
2017-05-06T04:53:25.575Z,5
2017-05-06T04:54:25.269Z,5
2017-05-06T04:55:25.300Z,5
2017-05-06T04:56:26.222Z,5
2017-05-06T04:57:25.046Z,5
2017-05-06T04:58:25.692Z,5
2017-05-06T04:59:25.724Z,5
2017-05-06T05:00:25.753Z,5
2017-05-06T05:01:26.342Z,5
2017-05-06T05:02:26.115Z,5
2017-05-06T05:03:26.139Z,5
2017-05-06T05:04:25.838Z,5
2017-05-06T05:05:26.225Z,5
2017-05-06T05:06:26.158Z,5
2017-05-06T05:07:25.319Z,5
2017-05-06T05:08:26.284Z,5
2017-05-06T05:09:25.670Z,5
2017-05-06T05:10:25.708Z,5
2017-05-06T05:11:25.982Z,5
2017-05-06T05:12:25.770Z,5
2017-05-06T05:13:26.414Z,5
2017-05-06T05:14:26.435Z,5
2017-05-06T05:15:26.156Z,5
2017-05-06T05:16:26.745Z,5
2017-05-06T05:17:26.523Z,5
2017-05-06T05:18:26.235Z,5
2017-05-06T05:19:25.947Z,5
2017-05-06T05:20:26.294Z,5
2017-05-06T05:21:26.569Z,5
2017-05-06T05:22:26.369Z,5
2017-05-06T05:23:26.691Z,5
2017-05-06T05:24:25.772Z,5
2017-05-06T05:25:26.152Z,5
2017-05-06T05:26:26.701Z,5
2017-05-06T05:27:26.160Z,5
2017-05-06T05:28:26.204Z,5
2017-05-06T05:29:26.538Z,5
2017-05-06T05:30:26.880Z,5
2017-05-06T05:31:26.822Z,5
2017-05-06T05:32:26.614Z,5
2017-05-06T05:33:26.326Z,5
2017-05-06T05:34:26.667Z,5
2017-05-06T05:35:27.001Z,5
2017-05-06T05:36:26.653Z,5
2017-05-06T05:37:26.429Z,5
2017-05-06T05:38:26.772Z,5
2017-05-06T05:39:26.813Z,5
2017-05-06T05:40:26.835Z,5
2017-05-06T05:41:27.101Z,5
2017-05-06T05:42:26.579Z,5
2017-05-06T05:43:26.284Z,5
2017-05-06T05:44:27.247Z,10
2017-05-06T05:45:27.272Z,10
2017-05-06T05:46:27.240Z,10
2017-05-06T05:47:27.014Z,10
2017-05-06T05:48:27.038Z,10
2017-05-06T05:49:26.762Z,10
2017-05-06T05:50:27.096Z,10
2017-05-06T05:51:27.693Z,10
2017-05-06T05:52:27.162Z,10
2017-05-06T05:53:27.174Z,10
2017-05-06T05:54:26.892Z,10
2017-05-06T05:55:27.539Z,15
2017-05-06T05:56:27.214Z,15
2017-05-06T05:57:27.609Z,15
2017-05-06T05:58:27.633Z,10
2017-05-06T05:59:27.034Z,15
2017-05-06T06:00:27.692Z,15
2017-05-06T06:01:27.969Z,15
2017-05-06T06:02:27.773Z,15
2017-05-06T06:03:27.458Z,15
2017-05-06T06:04:27.474Z,15
2017-05-06T06:05:27.819Z,20
2017-05-06T06:06:27.536Z,20
2017-05-06T06:07:27.506Z,20
2017-05-06T06:08:27.590Z,20
2017-05-06T06:09:27.929Z,15
2017-05-06T06:10:27.980Z,15
2017-05-06T06:11:27.681Z,15
2017-05-06T06:12:27.641Z,15
2017-05-06T06:13:27.725Z,15
2017-05-06T06:14:27.446Z,15
2017-05-06T06:15:27.472Z,15
2017-05-06T06:16:28.123Z,15
2017-05-06T06:17:28.114Z,15
2017-05-06T06:18:27.866Z,15
2017-05-06T06:19:27.890Z,15
2017-05-06T06:20:27.922Z,15
2017-05-06T06:21:27.947Z,15
2017-05-06T06:22:27.921Z,15
2017-05-06T06:23:28.004Z,15
2017-05-06T06:24:28.027Z,15
2017-05-06T06:25:28.063Z,15
2017-05-06T06:26:27.460Z,15
2017-05-06T06:27:28.057Z,20
2017-05-06T06:28:28.144Z,20
2017-05-06T06:29:28.165Z,20
2017-05-06T06:30:28.191Z,25
2017-05-06T06:31:27.911Z,25
2017-05-06T06:32:28.499Z,25
2017-05-06T06:33:28.591Z,25
2017-05-06T06:34:28.614Z,25
2017-05-06T06:35:28.336Z,25
2017-05-06T06:36:28.359Z,25
2017-05-06T06:37:28.637Z,25
2017-05-06T06:38:28.420Z,20
2017-05-06T06:39:28.441Z,20
2017-05-06T06:40:28.782Z,20
2017-05-06T06:41:28.811Z,20
2017-05-06T06:42:29.108Z,20
2017-05-06T06:43:28.858Z,20
2017-05-06T06:44:28.894Z,15
2017-05-06T06:45:28.610Z,15
2017-05-06T06:46:28.643Z,15
2017-05-06T06:47:29.229Z,15
2017-05-06T06:48:29.013Z,20
2017-05-06T06:49:29.042Z,20
2017-05-06T06:50:28.441Z,20
2017-05-06T06:51:29.086Z,25
2017-05-06T06:52:29.367Z,25
2017-05-06T06:53:29.141Z,30
2017-05-06T06:54:29.168Z,30
2017-05-06T06:55:29.201Z,30
2017-05-06T06:56:28.606Z,30
2017-05-06T06:57:29.187Z,30
2017-05-06T06:58:28.968Z,30
2017-05-06T06:59:29.309Z,30
2017-05-06T07:00:29.018Z,30
2017-05-06T07:01:29.052Z,30
2017-05-06T07:02:29.015Z,30
2017-05-06T07:03:29.113Z,30
2017-05-06T07:04:29.142Z,30
2017-05-06T07:05:28.854Z,30
2017-05-06T07:06:29.498Z,30
2017-05-06T07:07:29.502Z,30
2017-05-06T07:08:29.552Z,30
2017-05-06T07:09:29.269Z,30
2017-05-06T07:10:29.614Z,30
2017-05-06T07:11:29.646Z,30
2017-05-06T07:12:29.914Z,30
2017-05-06T07:13:28.764Z,30
2017-05-06T07:14:29.728Z,30
2017-05-06T07:15:29.758Z,30
2017-05-06T07:16:29.487Z,30
2017-05-06T07:17:30.059Z,30
2017-05-06T07:18:29.947Z,35
2017-05-06T07:19:29.868Z,35
2017-05-06T07:20:29.578Z,35
2017-05-06T07:21:29.606Z,35
2017-05-06T07:22:29.891Z,35
2017-05-06T07:23:29.979Z,35
2017-05-06T07:24:30.033Z,35
2017-05-06T07:25:30.030Z,35
2017-05-06T07:26:29.751Z,35
2017-05-06T07:27:30.352Z,35
2017-05-06T07:28:29.804Z,35
2017-05-06T07:29:30.149Z,30
2017-05-06T07:30:29.861Z,30
2017-05-06T07:31:29.575Z,30
2017-05-06T07:32:30.479Z,30
2017-05-06T07:33:30.264Z,30
2017-05-06T07:34:29.659Z,30
2017-05-06T07:35:29.694Z,25
2017-05-06T07:36:30.346Z,25
2017-05-06T07:37:30.642Z,25
2017-05-06T07:38:30.398Z,25
2017-05-06T07:39:30.425Z,25
2017-05-06T07:40:30.713Z,25
2017-05-06T07:41:31.206Z,25
2017-05-06T07:42:30.178Z,25
2017-05-06T07:43:30.257Z,25
2017-05-06T07:44:29.660Z,25
2017-05-06T07:45:45.427Z,25
2017-05-06T07:46:45.536Z,30
2017-05-06T07:47:30.932Z,30
2017-05-06T07:48:30.276Z,30
2017-05-06T07:49:30.663Z,30
2017-05-06T07:50:31.797Z,30
2017-05-06T07:51:45.827Z,30
2017-05-06T07:52:32.419Z,35
2017-05-06T07:54:31.082Z,35
2017-05-06T07:55:32.295Z,35
2017-05-06T07:56:45.487Z,40
2017-05-06T07:57:31.461Z,40
2017-05-06T07:59:15.193Z,40
2017-05-06T07:59:32.098Z,40
2017-05-06T08:00:46.290Z,40
2017-05-06T08:01:45.720Z,40
2017-05-06T08:02:32.407Z,40
2017-05-06T08:03:31.187Z,40
2017-05-06T08:05:46.635Z,35
2017-05-06T08:06:32.354Z,35
2017-05-06T08:07:32.345Z,35
2017-05-06T08:08:31.270Z,35
2017-05-06T08:10:31.352Z,35
2017-05-06T08:11:46.439Z,35
2017-05-06T08:13:01.016Z,35
2017-05-06T08:13:47.648Z,40
2017-05-06T08:14:32.446Z,40
2017-05-06T08:15:31.141Z,45
2017-05-06T08:16:31.991Z,45
2017-05-06T08:17:32.086Z,45
2017-05-06T08:18:31.994Z,45
2017-05-06T08:19:31.484Z,45
2017-05-06T08:20:31.321Z,45
2017-05-06T08:21:31.277Z,45
2017-05-06T08:22:31.618Z,45
2017-05-06T08:23:31.650Z,45
2017-05-06T08:24:31.318Z,45
2017-05-06T08:25:31.716Z,45
2017-05-06T08:26:31.430Z,45
2017-05-06T08:27:31.478Z,45
2017-05-06T08:28:31.482Z,45
2017-05-06T08:29:31.764Z,45
2017-05-06T08:30:31.230Z,50
2017-05-06T08:31:31.885Z,50
2017-05-06T08:32:31.918Z,50
2017-05-06T08:33:31.623Z,50
2017-05-06T08:34:31.903Z,50
2017-05-06T08:35:31.061Z,50
2017-05-06T08:36:32.012Z,55
2017-05-06T08:37:31.738Z,55
2017-05-06T08:38:32.079Z,50
2017-05-06T08:39:32.376Z,50
2017-05-06T08:40:32.128Z,50
2017-05-06T08:41:32.155Z,45
2017-05-06T08:42:31.880Z,45
2017-05-06T08:43:31.903Z,45
2017-05-06T08:44:32.497Z,45
2017-05-06T08:45:32.267Z,45
2017-05-06T08:46:32.300Z,40
2017-05-06T08:47:31.712Z,40
2017-05-06T08:48:31.729Z,40
2017-05-06T08:49:32.655Z,40
2017-05-06T08:50:32.425Z,45
2017-05-06T08:51:32.445Z,45
2017-05-06T08:52:31.844Z,50
2017-05-06T08:53:32.498Z,50
2017-05-06T08:54:32.456Z,50
2017-05-06T08:55:32.556Z,50
2017-05-06T08:56:32.588Z,50
2017-05-06T08:57:32.620Z,55
2017-05-06T08:58:32.335Z,55
2017-05-06T08:59:32.915Z,55
2017-05-06T09:00:32.708Z,55
2017-05-06T09:01:32.743Z,55
2017-05-06T09:02:32.765Z,55
2017-05-06T09:03:32.785Z,55
2017-05-06T09:04:32.747Z,55
2017-05-06T09:05:32.842Z,55
2017-05-06T09:06:32.559Z,55
2017-05-06T09:07:32.893Z,50
2017-05-06T09:08:32.922Z,50
2017-05-06T09:09:32.890Z,50
2017-05-06T09:10:32.983Z,50
2017-05-06T09:11:32.701Z,50
2017-05-06T09:12:32.441Z,50
2017-05-06T09:13:33.056Z,50
2017-05-06T09:14:33.038Z,45
2017-05-06T09:15:32.811Z,45
2017-05-06T09:16:32.224Z,40
2017-05-06T09:17:32.554Z,35
2017-05-06T09:18:33.206Z,35
2017-05-06T09:19:32.866Z,35
2017-05-06T09:20:33.259Z,35
2017-05-06T09:21:33.283Z,35
2017-05-06T09:22:33.321Z,35
2017-05-06T09:23:32.729Z,35
2017-05-06T09:24:33.627Z,35
2017-05-06T09:25:33.403Z,35
2017-05-06T09:26:33.443Z,35
2017-05-06T09:27:32.525Z,40
2017-05-06T09:28:33.181Z,40
2017-05-06T09:29:33.457Z,40
2017-05-06T09:30:33.546Z,40
2017-05-06T09:31:33.576Z,40
2017-05-06T09:32:33.605Z,45
2017-05-06T09:33:33.633Z,45
2017-05-06T09:34:33.294Z,45
2017-05-06T09:35:33.691Z,45
2017-05-06T09:36:33.723Z,50
2017-05-06T09:37:33.123Z,50
2017-05-06T09:38:33.154Z,50
2017-05-06T09:39:33.754Z,55
2017-05-06T09:40:33.515Z,60
2017-05-06T09:41:33.556Z,60
2017-05-06T09:42:33.883Z,60
2017-05-06T09:43:33.914Z,60
2017-05-06T09:44:34.226Z,60
2017-05-06T09:45:33.662Z,55
2017-05-06T09:46:33.683Z,55
2017-05-06T09:47:33.088Z,55
2017-05-06T09:48:34.061Z,55
2017-05-06T09:49:33.185Z,50
2017-05-06T09:50:34.354Z,45
2017-05-06T09:51:33.830Z,45
2017-05-06T09:52:33.853Z,40
2017-05-06T09:53:33.888Z,40
2017-05-06T09:54:33.914Z,40
2017-05-06T09:55:34.182Z,40
2017-05-06T09:56:34.288Z,40
2017-05-06T09:57:34.303Z,40
2017-05-06T09:58:33.724Z,40
2017-05-06T09:59:34.374Z,35
2017-05-06T10:00:34.341Z,35
2017-05-06T10:01:34.117Z,40
2017-05-06T10:02:34.452Z,40
2017-05-06T10:03:34.169Z,40
2017-05-06T10:04:34.209Z,40
2017-05-06T10:05:34.794Z,35
2017-05-06T10:06:33.937Z,30
2017-05-06T10:07:33.664Z,30
2017-05-06T10:08:33.705Z,25
2017-05-06T10:09:34.659Z,25
2017-05-06T10:10:34.626Z,25
2017-05-06T10:11:34.102Z,25
2017-05-06T10:12:34.422Z,25
2017-05-06T10:13:34.447Z,25
2017-05-06T10:14:34.523Z,30
2017-05-06T10:15:34.454Z,30
2017-05-06T10:16:34.539Z,35
2017-05-06T10:17:34.896Z,35
2017-05-06T10:18:34.597Z,35
2017-05-06T10:19:34.316Z,40
2017-05-06T10:20:34.907Z,40
2017-05-06T10:21:34.366Z,45
2017-05-06T10:22:34.406Z,45
2017-05-06T10:23:34.745Z,50
2017-05-06T10:24:35.080Z,50
2017-05-06T10:25:35.057Z,50
2017-05-06T10:26:35.143Z,55
2017-05-06T10:27:34.853Z,60
2017-05-06T10:28:34.884Z,65
2017-05-06T10:29:34.916Z,65
2017-05-06T10:30:35.194Z,70
2017-05-06T10:31:34.963Z,70
2017-05-06T10:32:35.068Z,70
2017-05-06T10:33:35.333Z,70
2017-05-06T10:34:34.771Z,70
2017-05-06T10:35:35.337Z,70
2017-05-06T10:36:35.113Z,75
2017-05-06T10:37:35.451Z,75
2017-05-06T10:38:35.168Z,75
2017-05-06T10:39:35.507Z,80
2017-05-06T10:40:35.776Z,80
2017-05-06T10:41:34.947Z,80
2017-05-06T10:42:35.336Z,80
2017-05-06T10:43:35.624Z,75
2017-05-06T10:44:35.653Z,80
2017-05-06T10:45:35.613Z,75
2017-05-06T10:46:35.706Z,80
2017-05-06T10:47:35.787Z,80
2017-05-06T10:48:34.859Z,85
2017-05-06T10:49:35.477Z,80
2017-05-06T10:50:36.073Z,75
2017-05-06T10:51:35.852Z,75
2017-05-06T10:52:35.882Z,75
2017-05-06T10:53:35.904Z,75
2017-05-06T10:54:35.627Z,70
2017-05-06T10:55:36.217Z,70
2017-05-06T10:56:36.014Z,65
2017-05-06T10:57:36.019Z,65
2017-05-06T10:58:36.045Z,60
2017-05-06T10:59:35.772Z,55
2017-05-06T11:00:36.054Z,55
2017-05-06T11:01:35.515Z,60
2017-05-06T11:02:36.179Z,60
2017-05-06T11:03:35.879Z,65
2017-05-06T11:04:36.215Z,70
2017-05-06T11:05:36.194Z,65
2017-05-06T11:06:36.278Z,70
2017-05-06T11:07:36.314Z,75
2017-05-06T11:08:36.027Z,70
2017-05-06T11:09:36.368Z,70
2017-05-06T11:10:36.330Z,70
2017-05-06T11:11:36.422Z,65
2017-05-06T11:12:36.459Z,60
2017-05-06T11:13:35.858Z,55
2017-05-06T11:14:36.201Z,50
2017-05-06T11:15:36.797Z,50
2017-05-06T11:16:35.950Z,55
2017-05-06T11:17:36.291Z,50
2017-05-06T11:18:36.315Z,50
2017-05-06T11:19:36.336Z,45
2017-05-06T11:20:36.308Z,40
2017-05-06T11:21:36.713Z,40
2017-05-06T11:22:36.118Z,45
2017-05-06T11:23:36.763Z,45
2017-05-06T11:24:36.164Z,45
2017-05-06T11:25:36.761Z,50
2017-05-06T11:26:36.882Z,55
2017-05-06T11:27:36.911Z,55
2017-05-06T11:28:36.935Z,50
2017-05-06T11:29:36.952Z,45
2017-05-06T11:30:37.221Z,45
2017-05-06T11:31:36.999Z,50
2017-05-06T11:32:36.094Z,50
2017-05-06T11:33:36.435Z,50
2017-05-06T11:34:37.096Z,50
2017-05-06T11:35:36.809Z,50
2017-05-06T11:36:37.078Z,45
2017-05-06T11:37:37.171Z,40
2017-05-06T11:38:36.579Z,40
2017-05-06T11:39:36.913Z,40
2017-05-06T11:40:36.656Z,40
2017-05-06T11:41:36.919Z,45
2017-05-06T11:42:36.998Z,45
2017-05-06T11:43:37.359Z,45
2017-05-06T11:44:37.072Z,45
2017-05-06T11:45:37.093Z,45
2017-05-06T11:46:36.748Z,45
2017-05-06T11:47:36.834Z,50
2017-05-06T11:48:37.176Z,50
2017-05-06T11:49:37.515Z,50
2017-05-06T11:50:37.533Z,45
2017-05-06T11:51:37.517Z,45
2017-05-06T11:52:37.287Z,45
2017-05-06T11:53:37.320Z,40
2017-05-06T11:54:37.654Z,35
2017-05-06T11:55:37.371Z,35
2017-05-06T11:56:37.652Z,30
2017-05-06T11:57:37.750Z,35
2017-05-06T11:58:37.456Z,35
2017-05-06T11:59:37.181Z,35
2017-05-06T12:00:37.521Z,40
2017-05-06T12:01:37.794Z,40
2017-05-06T12:02:36.945Z,40
2017-05-06T12:03:37.291Z,40
2017-05-06T12:04:37.932Z,40
2017-05-06T12:05:37.980Z,40
2017-05-06T12:06:38.249Z,40
2017-05-06T12:07:37.721Z,40
2017-05-06T12:08:37.750Z,40
2017-05-06T12:09:37.763Z,40
2017-05-06T12:10:37.801Z,40
2017-05-06T12:11:38.085Z,40
2017-05-06T12:12:37.865Z,40
2017-05-06T12:13:37.886Z,40
2017-05-06T12:14:38.234Z,40
2017-05-06T12:15:38.260Z,35
2017-05-06T12:16:38.228Z,35
2017-05-06T12:17:37.379Z,30
2017-05-06T12:18:38.351Z,30
2017-05-06T12:19:38.368Z,30
2017-05-06T12:20:38.095Z,30
2017-05-06T12:21:38.673Z,30
2017-05-06T12:22:38.149Z,25
2017-05-06T12:23:38.174Z,25
2017-05-06T12:24:38.511Z,25
2017-05-06T12:25:38.549Z,25
2017-05-06T12:26:38.821Z,25
2017-05-06T12:27:38.610Z,25
2017-05-06T12:28:38.328Z,25
2017-05-06T12:29:38.659Z,20
2017-05-06T12:30:38.679Z,20
2017-05-06T12:31:38.956Z,20
2017-05-06T12:32:38.761Z,20
2017-05-06T12:33:38.771Z,20
2017-05-06T12:34:38.494Z,20
2017-05-06T12:35:38.504Z,20
2017-05-06T12:36:38.795Z,20
2017-05-06T12:37:38.882Z,20
2017-05-06T12:38:38.917Z,20
2017-05-06T12:39:38.946Z,20
2017-05-06T12:40:38.969Z,20
2017-05-06T12:41:38.965Z,15
2017-05-06T12:42:38.716Z,15
2017-05-06T12:43:38.742Z,15
2017-05-06T12:44:39.088Z,15
2017-05-06T12:45:39.111Z,20
2017-05-06T12:46:39.076Z,20
2017-05-06T12:47:39.183Z,15
2017-05-06T12:48:39.198Z,15
2017-05-06T12:49:39.221Z,15
2017-05-06T12:50:39.255Z,15
2017-05-06T12:51:39.221Z,15
2017-05-06T12:52:38.688Z,15
2017-05-06T12:53:39.341Z,15
2017-05-06T12:54:39.043Z,15
2017-05-06T12:55:39.083Z,15
2017-05-06T12:56:39.683Z,15
2017-05-06T12:57:38.826Z,15
2017-05-06T12:58:39.485Z,15
2017-05-06T12:59:39.190Z,15
2017-05-06T13:00:39.548Z,15
2017-05-06T13:01:39.814Z,15
2017-05-06T13:02:39.281Z,15
2017-05-06T13:03:38.993Z,15
2017-05-06T13:04:39.642Z,15
2017-05-06T13:05:39.366Z,15
2017-05-06T13:06:39.960Z,15
2017-05-06T13:07:39.745Z,15
2017-05-06T13:08:39.145Z,15
2017-05-06T13:09:39.394Z,15
2017-05-06T13:10:39.511Z,15
2017-05-06T13:11:40.092Z,15
2017-05-06T13:12:39.874Z,15
2017-05-06T13:13:39.909Z,15
2017-05-06T13:14:40.070Z,15
2017-05-06T13:15:39.642Z,15
2017-05-06T13:16:39.932Z,15
2017-05-06T13:17:40.024Z,15
2017-05-06T13:18:40.049Z,15
2017-05-06T13:19:39.750Z,15
2017-05-06T13:20:39.790Z,15
2017-05-06T13:21:40.378Z,15
2017-05-06T13:22:40.159Z,15
2017-05-06T13:23:39.881Z,15
2017-05-06T13:24:39.906Z,15
2017-05-06T13:25:40.247Z,20
2017-05-06T13:26:40.523Z,20
2017-05-06T13:27:40.292Z,20
2017-05-06T13:28:40.013Z,20
2017-05-06T13:29:40.357Z,20
2017-05-06T13:30:40.075Z,20
2017-05-06T13:31:40.363Z,20
2017-05-06T13:32:39.506Z,20
2017-05-06T13:33:39.841Z,20
2017-05-06T13:34:40.505Z,20
2017-05-06T13:35:40.531Z,20
2017-05-06T13:36:40.810Z,25
2017-05-06T13:37:40.271Z,25
2017-05-06T13:38:40.302Z,25
2017-05-06T13:39:40.646Z,20
2017-05-06T13:40:40.046Z,20
2017-05-06T13:41:40.314Z,20
2017-05-06T13:42:40.414Z,20
2017-05-06T13:43:40.734Z,20
2017-05-06T13:44:39.550Z,20
2017-05-06T13:45:40.502Z,20
2017-05-06T13:46:41.091Z,20
2017-05-06T13:47:40.555Z,20
2017-05-06T13:48:40.585Z,20
2017-05-06T13:49:40.914Z,20
2017-05-06T13:50:40.639Z,20
2017-05-06T13:51:40.662Z,25
2017-05-06T13:52:40.951Z,25
2017-05-06T13:53:41.033Z,25
2017-05-06T13:54:40.440Z,25
2017-05-06T13:55:41.097Z,25
2017-05-06T13:56:40.807Z,20
2017-05-06T13:57:40.772Z,20
2017-05-06T13:58:40.867Z,20
2017-05-06T13:59:41.202Z,20
2017-05-06T14:00:41.237Z,15
2017-05-06T14:01:40.950Z,20
2017-05-06T14:02:41.240Z,20
2017-05-06T14:03:41.000Z,20
2017-05-06T14:04:41.024Z,15
2017-05-06T14:05:41.373Z,15
2017-05-06T14:06:41.086Z,15
2017-05-06T14:07:41.059Z,15
2017-05-06T14:08:41.456Z,15
2017-05-06T14:09:41.515Z,15
2017-05-06T14:10:40.902Z,15
2017-05-06T14:11:41.536Z,15
2017-05-06T14:12:41.503Z,15
2017-05-06T14:13:40.997Z,15
2017-05-06T14:14:41.632Z,15
2017-05-06T14:15:41.659Z,15
2017-05-06T14:16:41.682Z,15
2017-05-06T14:17:41.639Z,10
2017-05-06T14:18:41.742Z,10
2017-05-06T14:19:41.768Z,15
2017-05-06T14:20:41.485Z,10
2017-05-06T14:21:41.198Z,10
2017-05-06T14:22:42.100Z,10
2017-05-06T14:23:41.264Z,10
2017-05-06T14:24:41.596Z,10
2017-05-06T14:25:41.617Z,10
2017-05-06T14:26:41.676Z,10
2017-05-06T14:27:42.249Z,10
2017-05-06T14:28:41.712Z,10
2017-05-06T14:29:41.741Z,10
2017-05-06T14:30:41.449Z,10